Data for 06/11/2016

Time Sea-Level Adjusted Pressure Absolute Pressure Temperature Relative Humidity Dew Point   
(mb) (inHg) (mb) (inHg) (C) (F) (%) (C) (F)
00:05 1014 29.94 843 24.89 16.9 62.5 55 8 46.4
00:10 1014 29.94 844 24.92 16.7 62.1 57 8.1 46.7
00:15 1014 29.94 844 24.92 16.6 61.9 57 8.2 46.7
00:20 1014 29.94 844 24.92 16.6 61.8 58 8.3 46.9
00:25 1014 29.94 844 24.92 16.6 61.8 58 8.2 46.8
00:30 1014 29.94 844 24.92 16.6 61.8 58 8.3 46.9
00:35 1014 29.94 844 24.92 16.6 61.9 57 8.3 46.9
00:40 1014 29.94 844 24.92 16.6 61.9 57 8.2 46.8
00:45 1014 29.94 844 24.92 16.7 62 57 8.2 46.7
00:50 1015 29.97 844 24.92 16.7 62.1 56 8.1 46.6
00:55 1015 29.97 844 24.92 16.6 61.9 57 8.2 46.7
01:00 1015 29.97 844 24.92 16.3 61.4 59 8.4 47.1
01:05 1015 29.97 844 24.92 16.1 61 61 8.6 47.5
01:10 1015 29.97 844 24.92 15.9 60.7 62 8.7 47.7
01:15 1015 29.97 844 24.92 15.8 60.4 63 8.8 47.9
01:20 1015 29.97 844 24.92 15.6 60.1 64 9 48.2
01:25 1015 29.97 844 24.92 15.4 59.8 66 9.1 48.3
01:30 1015 29.97 844 24.92 15.3 59.6 66 9.1 48.4
01:35 1015 29.97 844 24.92 15.1 59.1 68 9.3 48.8
01:40 1015 29.97 844 24.92 14.9 58.7 69 9.4 48.9
01:45 1015 29.97 844 24.92 14.8 58.6 70 9.4 48.9
01:50 1015 29.97 844 24.92 14.7 58.5 69 9.2 48.6
01:55 1015 29.97 844 24.92 14.6 58.2 69 9 48.3
02:00 1015 29.97 844 24.92 14.2 57.6 71 9 48.3
02:05 1015 29.97 844 24.92 13.9 57 72 8.9 48.1
02:10 1015 29.97 844 24.92 13.7 56.6 74 9.3 48.7
02:15 1015 29.97 844 24.92 13.9 56.9 73 9.1 48.5
02:20 1015 29.97 844 24.92 13.9 57 73 9.1 48.4
02:25 1015 29.97 844 24.92 14 57.2 72 9.1 48.4
02:30 1015 29.97 844 24.92 14 57.2 72 9.1 48.3
02:35 1015 29.97 844 24.92 14 57.2 72 9.1 48.4
02:40 1015 29.97 844 24.92 14.1 57.4 72 9.2 48.6
02:45 1015 29.97 845 24.95 14.1 57.3 72 9.1 48.4
02:50 1015 29.97 845 24.95 14 57.1 72 9 48.3
02:55 1015 29.97 845 24.95 14 57.2 72 9.1 48.4
03:00 1015 29.97 844 24.92 14 57.1 73 9.2 48.5
03:05 1015 29.97 845 24.95 13.9 57.1 73 9.3 48.7
03:10 1015 29.97 844 24.92 14.1 57.4 73 9.4 48.9
03:15 1015 29.97 844 24.92 14.2 57.6 73 9.4 49
03:20 1015 29.97 845 24.95 14.2 57.6 72 9.2 48.6
03:25 1015 29.97 845 24.95 14.2 57.5 73 9.4 49
03:30 1016 30 845 24.95 14 57.2 75 9.6 49.3
03:35 1016 30 845 24.95 13.7 56.7 75 9.4 49
03:40 1016 30 845 24.95 13.7 56.6 76 9.5 49.1
03:45 1016 30 845 24.95 13.5 56.4 77 9.6 49.4
03:50 1016 30 845 24.95 13.4 56.1 78 9.7 49.4
03:55 1016 30 845 24.95 13.3 55.9 78 9.6 49.3
04:00 1016 30 845 24.95 13.3 55.9 78 9.6 49.2
04:05 1016 30 845 24.95 13.3 56 78 9.5 49.2
04:10 1016 30 845 24.95 13.3 55.9 78 9.5 49.1
04:15 1016 30 845 24.95 13 55.3 79 9.5 49.1
04:20 1016 30 845 24.95 12.9 55.3 79 9.4 49
04:25 1016 30 845 24.95 13 55.3 79 9.4 48.9
04:30 1016 30 845 24.95 13 55.3 79 9.4 48.9
04:35 1016 30 845 24.95 13 55.4 79 9.5 49
04:40 1016 30 846 24.98 13 55.3 79 9.4 48.9
04:45 1016 30 846 24.98 13 55.5 78 9.4 48.9
04:50 1016 30 846 24.98 13.1 55.6 78 9.4 48.9
04:55 1016 30 846 24.98 13.2 55.7 77 9.3 48.8
05:00 1016 30 846 24.98 13.2 55.7 78 9.4 48.9
05:05 1016 30 846 24.98 13.2 55.7 78 9.4 48.9
05:10 1017 30.03 846 24.98 13.1 55.6 78 9.4 49
05:15 1017 30.03 846 24.98 13 55.3 79 9.4 48.8
05:20 1017 30.03 846 24.98 12.9 55.3 79 9.4 48.8
05:25 1017 30.03 846 24.98 12.9 55.2 79 9.3 48.7
05:30 1017 30.03 846 24.98 12.9 55.2 79 9.3 48.8
05:35 1017 30.03 846 24.98 12.8 55.1 79 9.3 48.7
05:40 1017 30.03 846 24.98 12.8 55.1 79 9.3 48.7
05:45 1017 30.03 846 24.98 12.8 55 79 9.3 48.7
05:50 1017 30.03 846 24.98 12.7 54.9 79 9.3 48.7
05:55 1017 30.03 846 24.98 12.7 54.8 79 9.2 48.6
06:00 1017 30.03 846 24.98 12.7 54.9 79 9.3 48.7
06:05 1017 30.03 846 24.98 12.7 54.9 79 9.2 48.5
06:10 1017 30.03 846 24.98 12.8 55 79 9.3 48.7
06:15 1017 30.03 846 24.98 13 55.4 78 9.4 48.8
06:20 1017 30.03 846 24.98 13.2 55.7 77 9.3 48.7
06:25 1017 30.03 846 24.98 13.1 55.6 77 9.3 48.7
06:30 1017 30.03 846 24.98 13.2 55.8 77 9.3 48.7
06:35 1017 30.03 846 24.98 13.3 56 76 9.3 48.7
06:40 1017 30.03 846 24.98 13.6 56.6 75 9.3 48.7
06:45 1017 30.03 846 24.98 14.1 57.4 74 9.6 49.3
06:50 1017 30.03 846 24.98 13.7 56.7 76 9.6 49.2
06:55 1017 30.03 846 24.98 13.8 56.8 74 9.3 48.7
07:00 1017 30.03 846 24.98 14.1 57.3 73 9.3 48.7
07:05 1017 30.03 846 24.98 14.3 57.7 73 9.5 49.1
07:10 1017 30.03 846 24.98 14 57.3 73 9.4 48.9
07:15 1017 30.03 846 24.98 14.1 57.4 72 9.2 48.6
07:20 1017 30.03 846 24.98 14.8 58.6 71 9.6 49.2
07:25 1017 30.03 846 24.98 14.6 58.2 72 9.5 49.2
07:30 1017 30.03 846 24.98 14.6 58.2 72 9.7 49.4
07:35 1017 30.03 846 24.98 14.4 58 72 9.5 49
07:40 1017 30.03 847 25.01 14.6 58.2 72 9.6 49.2
07:45 1017 30.03 847 25.01 14.6 58.4 72 9.6 49.3
07:50 1017 30.03 847 25.01 14.7 58.5 72 9.7 49.4
07:55 1017 30.03 847 25.01 14.7 58.4 72 9.7 49.5
08:00 1018 30.06 847 25.01 14.6 58.2 73 9.7 49.5
08:05 1018 30.06 847 25.01 14.7 58.4 73 9.9 49.8
08:10 1018 30.06 847 25.01 14.8 58.6 72 9.9 49.9
08:15 1018 30.06 847 25.01 14.5 58 74 9.9 49.9
08:20 1018 30.06 847 25.01 14.5 58.2 72 9.6 49.3
08:25 1018 30.06 847 25.01 14.9 58.8 71 9.7 49.5
08:30 1018 30.06 847 25.01 15.1 59.1 70 9.8 49.6
08:35 1018 30.06 847 25.01 15.4 59.6 69 9.7 49.4
08:40 1018 30.06 847 25.01 15.5 60 69 10 50
08:45 1018 30.06 847 25.01 15.7 60.2 69 10.1 50.3
08:50 1018 30.06 847 25.01 15.6 60 69 10 50
08:55 1018 30.06 847 25.01 15.9 60.7 68 10 50
09:00 1017 30.03 847 25.01 16.7 62 65 10 50
09:05 1017 30.03 847 25.01 17 62.5 65 10.5 50.9
09:10 1017 30.03 847 25.01 16.3 61.3 65 9.8 49.6
09:15 1017 30.03 847 25.01 16.8 62.2 62 9.5 49
09:20 1017 30.03 847 25.01 17.3 63.2 60 9.6 49.3
09:25 1017 30.03 846 24.98 16.6 61.8 64 9.7 49.4
09:30 1017 30.03 846 24.98 17.4 63.3 60 9.6 49.3
09:35 1017 30.03 846 24.98 17.9 64.3 59 9.9 49.8
09:40 1017 30.03 846 24.98 18 64.4 59 9.9 49.9
09:45 1017 30.03 847 25.01 17.2 62.9 64 10.3 50.6
09:50 1017 30.03 847 25.01 17.3 63.2 61 9.8 49.6
09:55 1017 30.03 847 25.01 18.5 65.3 56 9.6 49.2
10:00 1018 30.06 847 25.01 18.8 65.9 57 10.3 50.6
10:05 1017 30.03 847 25.01 18.2 64.8 60 10.4 50.7
10:10 1017 30.03 847 25.01 18.1 64.5 58 9.9 49.8
10:15 1017 30.03 847 25.01 18.1 64.5 60 10.3 50.6
10:20 1017 30.03 847 25.01 17.7 63.9 59 9.8 49.6
10:25 1017 30.03 847 25.01 18.1 64.6 59 10 50.1
10:30 1017 30.03 847 25.01 18.3 64.9 59 10.3 50.5
10:35 1017 30.03 847 25.01 18.5 65.2 57 10 49.9
10:40 1018 30.06 847 25.01 18.5 65.3 58 10.2 50.3
10:45 1018 30.06 847 25.01 18.4 65.1 58 10.2 50.4
10:50 1018 30.06 847 25.01 18 64.4 59 10.1 50.2
10:55 1018 30.06 847 25.01 18 64.3 58 9.8 49.6
11:00 1018 30.06 847 25.01 18.6 65.4 57 10.1 50.1
11:05 1018 30.06 847 25.01 18.5 65.2 58 10.2 50.3
11:10 1018 30.06 847 25.01 18.4 65.2 57 10 50
11:15 1018 30.06 847 25.01 18.9 66 55 9.7 49.4
11:20 1018 30.06 847 25.01 19.6 67.3 52 9.6 49.3
11:25 1018 30.06 847 25.01 20.3 68.5 51 9.8 49.7
11:30 1018 30.06 847 25.01 20.1 68.3 53 10.5 50.9
11:35 1018 30.06 847 25.01 20 68 52 10.1 50.1
11:40 1018 30.06 847 25.01 19.6 67.3 53 9.9 49.8
11:45 1018 30.06 847 25.01 19.2 66.6 54 9.9 49.8
11:50 1018 30.06 847 25.01 19.3 66.8 53 9.6 49.3
11:55 1018 30.06 847 25.01 19.3 66.7 55 10 50
12:00 1018 30.06 847 25.01 19 66.2 54 9.7 49.5
12:05 1018 30.06 847 25.01 19.1 66.4 54 9.7 49.4
12:10 1018 30.06 847 25.01 19.3 66.7 54 9.8 49.6
12:15 1018 30.06 847 25.01 19.4 66.9 53 9.8 49.7
12:20 1017 30.03 847 25.01 19.4 66.8 54 9.8 49.7
12:25 1018 30.06 847 25.01 19.3 66.7 53 9.6 49.4
12:30 1018 30.06 847 25.01 19.2 66.5 53 9.6 49.2
12:35 1018 30.06 847 25.01 19.1 66.3 53 9.4 48.9
12:40 1018 30.06 847 25.01 19.2 66.6 52 9.2 48.6
12:45 1018 30.06 847 25.01 19.5 67.1 51 9.2 48.6
12:50 1018 30.06 847 25.01 19.7 67.5 51 9.4 48.9
12:55 1018 30.06 847 25.01 19.5 67.1 50 9.1 48.3
13:00 1017 30.03 847 25.01 19.2 66.6 52 9.4 48.9
13:05 1018 30.06 847 25.01 19.1 66.5 52 9.1 48.4
13:10 1018 30.06 847 25.01 19.2 66.6 52 9.3 48.8
13:15 1018 30.06 847 25.01 19.3 66.7 51 9.1 48.4
13:20 1018 30.06 847 25.01 19.5 67.1 50 9 48.1
13:25 1018 30.06 847 25.01 19.6 67.3 50 9.1 48.4
13:30 1018 30.06 847 25.01 19.7 67.4 50 9.1 48.3
13:35 1018 30.06 847 25.01 19.2 66.5 49 8.5 47.3
13:40 1017 30.03 847 25.01 19.6 67.2 50 8.9 48
13:45 1017 30.03 847 25.01 20.2 68.3 48 8.9 48.1
13:50 1017 30.03 847 25.01 20.2 68.3 48 8.9 48
13:55 1017 30.03 847 25.01 19.8 67.7 49 9.1 48.4
14:00 1017 30.03 847 25.01 20.2 68.4 47 8.7 47.6
14:05 1017 30.03 847 25.01 20.5 68.8 47 9 48.3
14:10 1018 30.06 847 25.01 20 68 50 9.2 48.6
14:15 1018 30.06 847 25.01 19.5 67.1 50 9.1 48.3
14:20 1018 30.06 847 25.01 19 66.3 52 9 48.2
14:25 1018 30.06 847 25.01 19.2 66.5 51 8.9 48
14:30 1018 30.06 847 25.01 19 66.2 52 9.1 48.4
14:35 1018 30.06 847 25.01 19 66.2 53 9.2 48.6
14:40 1018 30.06 847 25.01 18.8 65.9 54 9.3 48.8
14:45 1018 30.06 847 25.01 18.8 65.9 53 9 48.3
14:50 1018 30.06 847 25.01 18.9 66 52 8.9 48
14:55 1018 30.06 847 25.01 18.9 66.1 52 8.9 48
15:00 1018 30.06 847 25.01 18.6 65.5 53 8.9 47.9
15:05 1018 30.06 847 25.01 18.7 65.6 57 10.1 50.3
15:10 1018 30.06 847 25.01 18 64.4 62 10.8 51.4
15:15 1018 30.06 847 25.01 17.5 63.5 65 11.1 51.9
15:20 1018 30.06 847 25.01 17.4 63.4 63 10.5 50.9
15:25 1018 30.06 847 25.01 17.4 63.3 63 10.3 50.6
15:30 1018 30.06 847 25.01 17.3 63.2 62 10.2 50.3
15:35 1018 30.06 847 25.01 16.8 62.2 69 11.1 52
15:40 1018 30.06 847 25.01 17 62.6 66 10.6 51.1
15:45 1018 30.06 847 25.01 17.2 63 61 9.8 49.6
15:50 1018 30.06 847 25.01 17.1 62.8 64 10.3 50.6
15:55 1018 30.06 847 25.01 17.1 62.8 65 10.4 50.8
16:00 1018 30.06 847 25.01 17.5 63.5 65 11 51.9
16:05 1018 30.06 847 25.01 17.7 63.8 60 9.9 49.8
16:10 1018 30.06 847 25.01 17.5 63.5 60 9.8 49.6
16:15 1018 30.06 847 25.01 17.3 63.2 61 9.8 49.7
16:20 1018 30.06 847 25.01 17.2 63 59 9.2 48.6
16:25 1018 30.06 848 25.04 17 62.7 60 9.4 49
16:30 1018 30.06 848 25.04 17 62.6 61 9.4 49
16:35 1018 30.06 848 25.04 16.9 62.4 61 9.5 49.1
16:40 1018 30.06 847 25.01 16.8 62.3 62 9.6 49.3
16:45 1018 30.06 847 25.01 16.8 62.2 62 9.5 49
16:50 1018 30.06 847 25.01 16.6 61.9 63 9.5 49.1
16:55 1018 30.06 847 25.01 16.5 61.6 65 9.9 49.8
17:00 1018 30.06 848 25.04 16.2 61.2 64 9.4 49
17:05 1018 30.06 847 25.01 16.2 61.2 67 10.2 50.4
17:10 1018 30.06 848 25.04 16.3 61.3 69 10.6 51.1
17:15 1018 30.06 847 25.01 16 60.7 73 11.1 51.9
17:20 1018 30.06 847 25.01 15.7 60.3 74 11.2 52.1
17:25 1018 30.06 847 25.01 15.5 59.9 74 10.9 51.6
17:30 1018 30.06 848 25.04 15.4 59.7 74 10.9 51.6
17:35 1019 30.09 848 25.04 15.5 60 70 10.2 50.4
17:40 1019 30.09 848 25.04 15.8 60.5 70 10.4 50.7
17:45 1019 30.09 848 25.04 16 60.7 68 10 50
17:50 1019 30.09 848 25.04 15.9 60.6 67 9.8 49.6
17:55 1019 30.09 848 25.04 15.4 59.8 68 9.6 49.3
18:00 1019 30.09 848 25.04 14.6 58.3 69 9 48.2
18:05 1019 30.09 848 25.04 14 57.2 71 8.9 48
18:10 1019 30.09 848 25.04 13.6 56.5 73 8.9 48
18:15 1019 30.09 849 25.07 13.4 56.1 73 8.7 47.7
18:20 1019 30.09 849 25.07 13.1 55.7 72 8.3 46.9
18:25 1020 30.12 849 25.07 12.8 55.1 73 8.2 46.8
18:30 1020 30.12 849 25.07 12.6 54.7 75 8.3 46.9
18:35 1020 30.12 849 25.07 12.5 54.5 75 8.3 47
18:40 1020 30.12 849 25.07 12.6 54.6 74 8.2 46.7
18:45 1019 30.09 849 25.07 12.5 54.4 75 8.3 46.9
18:50 1019 30.09 848 25.04 12.4 54.3 76 8.3 47
18:55 1019 30.09 849 25.07 12.2 54 77 8.3 47
19:00 1020 30.12 849 25.07 11.9 53.5 78 8.1 46.7
19:05 1020 30.12 849 25.07 11.8 53.3 78 8.1 46.6
19:10 1020 30.12 849 25.07 11.7 53.1 78 8.1 46.5
19:15 1020 30.12 849 25.07 11.6 53 78 8 46.5
19:20 1020 30.12 849 25.07 11.7 53 78 8 46.4
19:25 1020 30.12 849 25.07 11.6 52.9 78 7.9 46.3
19:30 1020 30.12 849 25.07 11.5 52.7 78 7.8 46
19:35 1020 30.12 849 25.07 11.4 52.6 78 7.8 46.1
19:40 1020 30.12 849 25.07 11.5 52.6 78 7.8 46
19:45 1020 30.12 849 25.07 11.4 52.5 79 7.8 46.1
19:50 1020 30.12 849 25.07 11.5 52.7 78 7.8 46.1
19:55 1020 30.12 849 25.07 11.5 52.8 78 7.9 46.3
20:00 1020 30.12 849 25.07 11.5 52.8 78 7.9 46.3
20:05 1020 30.12 849 25.07 11.6 52.8 79 8.1 46.5
20:10 1020 30.12 849 25.07 11.5 52.6 79 7.9 46.2
20:15 1020 30.12 849 25.07 11.5 52.8 79 8 46.3
20:20 1020 30.12 849 25.07 11.6 52.8 79 8 46.4
20:25 1020 30.12 850 25.1 11.6 52.8 79 8.1 46.6
20:30 1020 30.12 850 25.1 11.5 52.7 79 8.1 46.5
20:35 1021 30.15 850 25.1 11.6 52.8 79 8.1 46.6
20:40 1021 30.15 850 25.1 11.6 52.8 80 8.2 46.7
20:45 1021 30.15 850 25.1 11.4 52.5 80 8.1 46.6
20:50 1021 30.15 850 25.1 11.4 52.5 79 7.9 46.3
20:55 1021 30.15 850 25.1 11.5 52.6 79 8.1 46.5
21:00 1021 30.15 850 25.1 11.4 52.6 80 8.1 46.6
21:05 1021 30.15 850 25.1 11.4 52.4 80 8 46.5
21:10 1021 30.15 850 25.1 11.4 52.6 80 8.1 46.5
21:15 1021 30.15 850 25.1 11.3 52.3 81 8.1 46.6
21:20 1021 30.15 850 25.1 11.1 52.1 81 8 46.4
21:25 1021 30.15 850 25.1 11.1 52 81 8 46.3
21:30 1021 30.15 850 25.1 11.2 52.1 81 8 46.4
21:35 1021 30.15 850 25.1 11.2 52.1 81 8 46.4
21:40 1021 30.15 850 25.1 11.2 52.2 81 8.1 46.5
21:45 1021 30.15 851 25.13 11.2 52.2 80 8 46.4
21:50 1021 30.15 850 25.1 11.3 52.3 80 8 46.4
21:55 1021 30.15 851 25.13 11.3 52.4 80 8.1 46.6
22:00 1021 30.15 851 25.13 11.3 52.3 81 8.1 46.6
22:05 1021 30.15 851 25.13 11.3 52.4 80 8 46.5
22:10 1021 30.15 851 25.13 11.4 52.5 79 7.9 46.3
22:15 1021 30.15 851 25.13 11.6 52.8 78 7.9 46.2
22:20 1022 30.18 851 25.13 11.5 52.8 80 8.2 46.8
22:25 1022 30.18 851 25.13 11.4 52.6 80 8.2 46.7
22:30 1022 30.18 851 25.13 11.4 52.5 81 8.2 46.8
22:35 1022 30.18 851 25.13 11.5 52.7 80 8.2 46.7
22:40 1022 30.18 851 25.13 11.6 52.9 79 8.1 46.5
22:45 1022 30.18 851 25.13 11.7 53 79 8.1 46.6
22:50 1022 30.18 851 25.13 11.7 53.1 79 8.2 46.7
22:55 1022 30.18 851 25.13 11.7 53.1 80 8.3 46.9
23:00 1022 30.18 851 25.13 11.7 53 79 8.2 46.8
23:05 1022 30.18 851 25.13 11.8 53.2 78 8.1 46.7
23:10 1022 30.18 851 25.13 11.9 53.3 78 8.1 46.6
23:15 1022 30.18 851 25.13 11.8 53.3 78 8.1 46.7
23:20 1022 30.18 851 25.13 11.9 53.3 78 8.1 46.7
23:25 1022 30.18 851 25.13 11.9 53.3 79 8.3 46.9
23:30 1022 30.18 851 25.13 11.9 53.4 79 8.3 47
23:35 1022 30.18 851 25.13 11.9 53.4 79 8.3 47
23:40 1022 30.18 851 25.13 11.9 53.4 78 8.3 46.9
23:45 1022 30.18 851 25.13 11.9 53.4 78 8.2 46.8
23:50 1022 30.18 851 25.13 11.8 53.2 78 8.1 46.6
23:55 1022 30.18 851 25.13 11.8 53.2 77 8 46.4
24:00 1022 30.18 851 25.13 11.7 53.1 78 8.1 46.6